Startpagina
METAR-TAF:

METAR-TAF

Vliegvelden :

Aeroporto Internacional de Campo Grande

Campo Grande, Mato Grosso do Sul, Brazilië

breedte: 20-28S, lengte: 054-40W, hoogte: 567 m

Actueel weer

Dit bericht is 44 minuten geleden gemaakt, om 14:00 UTC
Wind 12 kt uit het noordnoordoosten
Temperatuur 27°C
Vochtigheid 48%
Druk 1022 hPa
Zicht 10 km of meer
Weinig wolken op 4000 ft
Gebroken wolken op 10000 ft

METAR: SBCG 161400Z 03012KT 9999 FEW040 BKN100 27/15 Q1022

Tijdstip: 10:44 (14:44 UTC)

Verwachting

Dit bericht is 5 uur en het 14 minuten geleden gemaakt, om 09:30 UTC
Verwachting geldig van 16 om 12 UTC tot 17 om 12 UTC
Wind 7 kt uit het oostnoordoosten
Zicht 10 km of meer
geen wolken onder 1500 m en geen cumulonimbus

TAF: SBCG 160930Z 1612/1712 07007KT CAVOK TX32/1618Z TN20/1708Z RMK PE R

Waarnemingen en weersverwachtingen van meer dan 4000 vliegvelden (METAR en TAF).

De beschikbare stations zijn de gele en rode punten op de kaart.

Ga met uw muis naar het station om de naam te zien.

Klik dan om waarnemingen en weersverwachtingen te zien.

kaart wijzigen: klik op de groene knoppen met een zwart kruis om in te zoomen, op de groene knop met een streepje om uit te zoomen of op de groene pijlen voor aangrenzende kaarten.


METAR-TAF: